sensor_id;sensor_type;location;lat;lon;timestamp;temperature;humidity
53534;DHT22;39421;53.204;6.568;2022-08-19T00:00:10;20.00;99.90
53534;DHT22;39421;53.204;6.568;2022-08-19T00:02:36;19.90;99.90
53534;DHT22;39421;53.204;6.568;2022-08-19T00:05:03;19.90;99.90
53534;DHT22;39421;53.204;6.568;2022-08-19T00:07:28;19.90;99.90
53534;DHT22;39421;53.204;6.568;2022-08-19T00:09:54;20.00;99.90
53534;DHT22;39421;53.204;6.568;2022-08-19T00:12:20;20.00;99.90
53534;DHT22;39421;53.204;6.568;2022-08-19T00:14:45;20.00;99.90
53534;DHT22;39421;53.204;6.568;2022-08-19T00:17:11;20.00;99.90
53534;DHT22;39421;53.204;6.568;2022-08-19T00:19:38;20.00;99.90
53534;DHT22;39421;53.204;6.568;2022-08-19T00:22:04;20.00;99.90
53534;DHT22;39421;53.204;6.568;2022-08-19T00:24:31;20.10;99.90
53534;DHT22;39421;53.204;6.568;2022-08-19T00:26:57;20.10;99.90
53534;DHT22;39421;53.204;6.568;2022-08-19T00:29:24;20.10;99.90
53534;DHT22;39421;53.204;6.568;2022-08-19T00:31:52;20.10;99.90
53534;DHT22;39421;53.204;6.568;2022-08-19T00:34:21;20.10;99.90
53534;DHT22;39421;53.204;6.568;2022-08-19T00:36:47;20.10;99.90
53534;DHT22;39421;53.204;6.568;2022-08-19T00:39:14;20.10;99.90
53534;DHT22;39421;53.204;6.568;2022-08-19T00:41:42;20.10;99.90
53534;DHT22;39421;53.204;6.568;2022-08-19T00:46:44;20.10;99.90
53534;DHT22;39421;53.204;6.568;2022-08-19T00:49:25;20.10;99.90
53534;DHT22;39421;53.204;6.568;2022-08-19T00:51:58;20.10;99.90
53534;DHT22;39421;53.204;6.568;2022-08-19T00:54:25;20.10;99.90
53534;DHT22;39421;53.204;6.568;2022-08-19T00:56:52;20.00;99.90
53534;DHT22;39421;53.204;6.568;2022-08-19T00:59:19;20.00;99.90
53534;DHT22;39421;53.204;6.568;2022-08-19T01:01:46;20.00;99.90
53534;DHT22;39421;53.204;6.568;2022-08-19T01:04:12;20.00;99.90
53534;DHT22;39421;53.204;6.568;2022-08-19T01:06:39;20.00;99.90
53534;DHT22;39421;53.204;6.568;2022-08-19T01:09:07;20.00;99.90
53534;DHT22;39421;53.204;6.568;2022-08-19T01:11:36;20.00;99.90
53534;DHT22;39421;53.204;6.568;2022-08-19T01:14:03;20.00;99.90
53534;DHT22;39421;53.204;6.568;2022-08-19T01:16:32;20.00;99.90
53534;DHT22;39421;53.204;6.568;2022-08-19T01:18:58;20.00;99.90
53534;DHT22;39421;53.204;6.568;2022-08-19T01:21:32;19.90;99.90
53534;DHT22;39421;53.204;6.568;2022-08-19T01:24:00;19.80;99.90
53534;DHT22;39421;53.204;6.568;2022-08-19T01:26:26;19.70;99.90
53534;DHT22;39421;53.204;6.568;2022-08-19T01:28:55;19.70;99.90
53534;DHT22;39421;53.204;6.568;2022-08-19T01:31:24;19.60;99.90
53534;DHT22;39421;53.204;6.568;2022-08-19T01:33:51;19.50;99.90
53534;DHT22;39421;53.204;6.568;2022-08-19T01:38:51;19.30;99.90
53534;DHT22;39421;53.204;6.568;2022-08-19T01:41:17;19.30;99.90
53534;DHT22;39421;53.204;6.568;2022-08-19T01:43:44;19.20;99.90
53534;DHT22;39421;53.204;6.568;2022-08-19T01:46:09;19.20;99.90
53534;DHT22;39421;53.204;6.568;2022-08-19T01:48:37;19.30;99.90
53534;DHT22;39421;53.204;6.568;2022-08-19T01:51:04;19.20;99.90
53534;DHT22;39421;53.204;6.568;2022-08-19T01:53:30;19.20;99.90
53534;DHT22;39421;53.204;6.568;2022-08-19T01:55:56;19.10;99.90
53534;DHT22;39421;53.204;6.568;2022-08-19T01:58:25;19.00;99.90
53534;DHT22;39421;53.204;6.568;2022-08-19T02:00:51;19.00;99.90
53534;DHT22;39421;53.204;6.568;2022-08-19T02:03:17;19.00;99.90
53534;DHT22;39421;53.204;6.568;2022-08-19T02:05:44;18.90;99.90
53534;DHT22;39421;53.204;6.568;2022-08-19T02:08:10;18.90;99.90
53534;DHT22;39421;53.204;6.568;2022-08-19T02:10:40;18.80;99.90
53534;DHT22;39421;53.204;6.568;2022-08-19T02:13:07;18.70;99.90
53534;DHT22;39421;53.204;6.568;2022-08-19T02:15:32;18.60;99.90
53534;DHT22;39421;53.204;6.568;2022-08-19T02:17:58;18.50;99.90
53534;DHT22;39421;53.204;6.568;2022-08-19T02:20:24;18.40;99.90
53534;DHT22;39421;53.204;6.568;2022-08-19T02:22:50;18.40;99.90
53534;DHT22;39421;53.204;6.568;2022-08-19T02:25:16;18.40;99.90
53534;DHT22;39421;53.204;6.568;2022-08-19T02:27:42;18.40;99.90
53534;DHT22;39421;53.204;6.568;2022-08-19T02:30:11;18.30;99.90
53534;DHT22;39421;53.204;6.568;2022-08-19T02:32:38;18.20;99.90
53534;DHT22;39421;53.204;6.568;2022-08-19T02:35:05;18.20;99.90
53534;DHT22;39421;53.204;6.568;2022-08-19T02:37:31;18.20;99.90
53534;DHT22;39421;53.204;6.568;2022-08-19T02:40:15;18.20;99.90
53534;DHT22;39421;53.204;6.568;2022-08-19T02:42:43;18.20;99.90
53534;DHT22;39421;53.204;6.568;2022-08-19T02:45:09;18.20;99.90
53534;DHT22;39421;53.204;6.568;2022-08-19T02:47:35;18.20;99.90
53534;DHT22;39421;53.204;6.568;2022-08-19T02:50:02;18.20;99.90
53534;DHT22;39421;53.204;6.568;2022-08-19T02:52:28;18.20;99.90
53534;DHT22;39421;53.204;6.568;2022-08-19T02:54:53;18.10;99.90
53534;DHT22;39421;53.204;6.568;2022-08-19T02:57:23;18.10;99.90
53534;DHT22;39421;53.204;6.568;2022-08-19T02:59:49;18.00;99.90
53534;DHT22;39421;53.204;6.568;2022-08-19T03:02:15;18.00;99.90
53534;DHT22;39421;53.204;6.568;2022-08-19T03:04:41;17.90;99.90
53534;DHT22;39421;53.204;6.568;2022-08-19T03:07:08;17.90;99.90
53534;DHT22;39421;53.204;6.568;2022-08-19T03:09:37;17.90;99.90
53534;DHT22;39421;53.204;6.568;2022-08-19T03:12:04;17.90;99.90
53534;DHT22;39421;53.204;6.568;2022-08-19T03:14:31;17.90;99.90
53534;DHT22;39421;53.204;6.568;2022-08-19T03:16:57;17.90;99.90
53534;DHT22;39421;53.204;6.568;2022-08-19T03:19:23;17.80;99.90
53534;DHT22;39421;53.204;6.568;2022-08-19T03:21:51;17.80;99.90
53534;DHT22;39421;53.204;6.568;2022-08-19T03:24:17;17.80;99.90
53534;DHT22;39421;53.204;6.568;2022-08-19T03:26:50;17.90;99.90
53534;DHT22;39421;53.204;6.568;2022-08-19T03:29:17;18.00;99.90
53534;DHT22;39421;53.204;6.568;2022-08-19T03:31:44;18.10;99.90
53534;DHT22;39421;53.204;6.568;2022-08-19T03:34:15;18.20;99.90
53534;DHT22;39421;53.204;6.568;2022-08-19T03:36:43;18.30;99.90
53534;DHT22;39421;53.204;6.568;2022-08-19T03:39:10;18.30;99.90
53534;DHT22;39421;53.204;6.568;2022-08-19T03:41:39;18.30;99.90
53534;DHT22;39421;53.204;6.568;2022-08-19T03:44:05;18.30;99.90
53534;DHT22;39421;53.204;6.568;2022-08-19T03:46:33;18.30;99.90
53534;DHT22;39421;53.204;6.568;2022-08-19T03:49:00;18.20;99.90
53534;DHT22;39421;53.204;6.568;2022-08-19T03:51:38;18.20;99.90
53534;DHT22;39421;53.204;6.568;2022-08-19T03:54:07;18.30;99.90
53534;DHT22;39421;53.204;6.568;2022-08-19T03:56:35;18.30;99.90
53534;DHT22;39421;53.204;6.568;2022-08-19T03:59:02;18.30;99.90
53534;DHT22;39421;53.204;6.568;2022-08-19T04:01:29;18.30;99.90
53534;DHT22;39421;53.204;6.568;2022-08-19T04:03:56;18.20;99.90
53534;DHT22;39421;53.204;6.568;2022-08-19T04:06:24;18.20;99.90
53534;DHT22;39421;53.204;6.568;2022-08-19T04:08:51;18.20;99.90
53534;DHT22;39421;53.204;6.568;2022-08-19T04:11:22;18.20;99.90
53534;DHT22;39421;53.204;6.568;2022-08-19T04:13:52;18.10;99.90
53534;DHT22;39421;53.204;6.568;2022-08-19T04:16:19;18.10;99.90
53534;DHT22;39421;53.204;6.568;2022-08-19T04:18:45;18.10;99.90
53534;DHT22;39421;53.204;6.568;2022-08-19T04:21:16;18.20;99.90
53534;DHT22;39421;53.204;6.568;2022-08-19T04:23:43;18.20;99.90
53534;DHT22;39421;53.204;6.568;2022-08-19T04:26:17;18.10;99.90
53534;DHT22;39421;53.204;6.568;2022-08-19T04:28:44;18.10;99.90
53534;DHT22;39421;53.204;6.568;2022-08-19T04:31:16;18.20;99.90
53534;DHT22;39421;53.204;6.568;2022-08-19T04:33:42;18.20;99.90
53534;DHT22;39421;53.204;6.568;2022-08-19T04:36:20;18.10;99.90
53534;DHT22;39421;53.204;6.568;2022-08-19T04:38:47;18.00;99.90
53534;DHT22;39421;53.204;6.568;2022-08-19T04:41:13;18.00;99.90
53534;DHT22;39421;53.204;6.568;2022-08-19T04:43:57;17.90;99.90
53534;DHT22;39421;53.204;6.568;2022-08-19T04:46:23;17.90;99.90
53534;DHT22;39421;53.204;6.568;2022-08-19T04:48:49;17.80;99.90
53534;DHT22;39421;53.204;6.568;2022-08-19T04:51:14;17.80;99.90
53534;DHT22;39421;53.204;6.568;2022-08-19T04:53:41;17.70;99.90
53534;DHT22;39421;53.204;6.568;2022-08-19T04:56:14;17.70;99.90
53534;DHT22;39421;53.204;6.568;2022-08-19T04:58:41;17.70;99.90
53534;DHT22;39421;53.204;6.568;2022-08-19T05:01:12;17.70;99.90
53534;DHT22;39421;53.204;6.568;2022-08-19T05:03:38;17.70;99.90
53534;DHT22;39421;53.204;6.568;2022-08-19T05:06:12;17.80;99.90
53534;DHT22;39421;53.204;6.568;2022-08-19T05:08:39;17.90;99.90
53534;DHT22;39421;53.204;6.568;2022-08-19T05:11:25;17.90;99.90
53534;DHT22;39421;53.204;6.568;2022-08-19T05:13:52;18.00;99.90
53534;DHT22;39421;53.204;6.568;2022-08-19T05:16:20;18.00;99.90
53534;DHT22;39421;53.204;6.568;2022-08-19T05:18:47;18.00;99.90
53534;DHT22;39421;53.204;6.568;2022-08-19T05:21:32;18.10;99.90
53534;DHT22;39421;53.204;6.568;2022-08-19T05:24:18;18.20;99.90
53534;DHT22;39421;53.204;6.568;2022-08-19T05:26:47;18.20;99.90
53534;DHT22;39421;53.204;6.568;2022-08-19T05:29:19;18.20;99.90
53534;DHT22;39421;53.204;6.568;2022-08-19T05:31:46;18.20;99.90
53534;DHT22;39421;53.204;6.568;2022-08-19T05:34:12;18.20;99.90
53534;DHT22;39421;53.204;6.568;2022-08-19T05:36:41;18.30;99.90
53534;DHT22;39421;53.204;6.568;2022-08-19T05:39:10;18.40;99.90
53534;DHT22;39421;53.204;6.568;2022-08-19T05:41:36;18.60;99.90
53534;DHT22;39421;53.204;6.568;2022-08-19T05:44:04;18.80;99.90
53534;DHT22;39421;53.204;6.568;2022-08-19T05:46:32;18.90;99.90
53534;DHT22;39421;53.204;6.568;2022-08-19T05:48:58;19.10;99.90
53534;DHT22;39421;53.204;6.568;2022-08-19T05:51:24;19.30;99.90
53534;DHT22;39421;53.204;6.568;2022-08-19T05:53:51;19.30;99.90
53534;DHT22;39421;53.204;6.568;2022-08-19T05:56:17;19.40;99.90
53534;DHT22;39421;53.204;6.568;2022-08-19T05:58:44;19.30;99.90
53534;DHT22;39421;53.204;6.568;2022-08-19T06:01:13;19.30;99.90
53534;DHT22;39421;53.204;6.568;2022-08-19T06:03:39;19.30;99.90
53534;DHT22;39421;53.204;6.568;2022-08-19T06:06:06;19.40;99.90
53534;DHT22;39421;53.204;6.568;2022-08-19T06:08:33;19.40;99.90
53534;DHT22;39421;53.204;6.568;2022-08-19T06:11:22;19.50;99.90
53534;DHT22;39421;53.204;6.568;2022-08-19T06:13:51;19.60;99.90
53534;DHT22;39421;53.204;6.568;2022-08-19T06:16:21;19.60;99.90
53534;DHT22;39421;53.204;6.568;2022-08-19T06:18:51;19.60;99.90
53534;DHT22;39421;53.204;6.568;2022-08-19T06:21:19;19.60;99.90
53534;DHT22;39421;53.204;6.568;2022-08-19T06:23:46;19.70;99.90
53534;DHT22;39421;53.204;6.568;2022-08-19T06:26:14;19.80;99.90
53534;DHT22;39421;53.204;6.568;2022-08-19T06:28:40;20.00;99.90
53534;DHT22;39421;53.204;6.568;2022-08-19T06:31:16;20.00;99.90
53534;DHT22;39421;53.204;6.568;2022-08-19T06:33:43;20.00;99.90
53534;DHT22;39421;53.204;6.568;2022-08-19T06:36:28;20.00;99.90
53534;DHT22;39421;53.204;6.568;2022-08-19T06:38:55;20.10;99.90
53534;DHT22;39421;53.204;6.568;2022-08-19T06:41:24;20.20;99.90
53534;DHT22;39421;53.204;6.568;2022-08-19T06:43:53;20.30;99.90
53534;DHT22;39421;53.204;6.568;2022-08-19T06:46:23;20.30;99.90
53534;DHT22;39421;53.204;6.568;2022-08-19T06:48:49;20.40;99.90
53534;DHT22;39421;53.204;6.568;2022-08-19T06:51:16;20.60;99.90
53534;DHT22;39421;53.204;6.568;2022-08-19T06:53:47;20.80;99.90
53534;DHT22;39421;53.204;6.568;2022-08-19T06:56:14;21.00;99.90
53534;DHT22;39421;53.204;6.568;2022-08-19T06:58:41;21.10;99.90
53534;DHT22;39421;53.204;6.568;2022-08-19T07:01:07;21.30;99.90
53534;DHT22;39421;53.204;6.568;2022-08-19T07:03:35;21.40;99.90
53534;DHT22;39421;53.204;6.568;2022-08-19T07:06:09;21.50;99.90
53534;DHT22;39421;53.204;6.568;2022-08-19T07:08:36;21.50;99.90
53534;DHT22;39421;53.204;6.568;2022-08-19T07:11:07;21.60;99.90
53534;DHT22;39421;53.204;6.568;2022-08-19T07:13:34;21.70;99.90
53534;DHT22;39421;53.204;6.568;2022-08-19T07:16:11;21.90;99.90
53534;DHT22;39421;53.204;6.568;2022-08-19T07:18:38;22.00;99.90
53534;DHT22;39421;53.204;6.568;2022-08-19T07:21:12;22.10;99.90
53534;DHT22;39421;53.204;6.568;2022-08-19T07:23:38;22.20;99.90
53534;DHT22;39421;53.204;6.568;2022-08-19T07:26:22;22.40;99.90
53534;DHT22;39421;53.204;6.568;2022-08-19T07:28:49;22.50;99.90
53534;DHT22;39421;53.204;6.568;2022-08-19T07:31:19;22.70;99.90
53534;DHT22;39421;53.204;6.568;2022-08-19T07:33:46;22.80;99.90
53534;DHT22;39421;53.204;6.568;2022-08-19T07:36:15;22.90;99.90
53534;DHT22;39421;53.204;6.568;2022-08-19T07:38:45;22.90;99.90
53534;DHT22;39421;53.204;6.568;2022-08-19T07:41:15;23.00;99.90
53534;DHT22;39421;53.204;6.568;2022-08-19T07:43:41;23.10;99.90
53534;DHT22;39421;53.204;6.568;2022-08-19T07:46:09;23.20;99.90
53534;DHT22;39421;53.204;6.568;2022-08-19T07:48:36;23.40;99.90
53534;DHT22;39421;53.204;6.568;2022-08-19T07:51:04;23.50;99.90
53534;DHT22;39421;53.204;6.568;2022-08-19T07:53:31;23.50;99.90
53534;DHT22;39421;53.204;6.568;2022-08-19T07:55:58;23.60;99.90
53534;DHT22;39421;53.204;6.568;2022-08-19T07:58:28;23.90;99.90
53534;DHT22;39421;53.204;6.568;2022-08-19T08:00:54;24.00;99.90
53534;DHT22;39421;53.204;6.568;2022-08-19T08:03:21;24.00;99.90
53534;DHT22;39421;53.204;6.568;2022-08-19T08:06:07;24.00;99.90
53534;DHT22;39421;53.204;6.568;2022-08-19T08:08:52;24.10;99.90
53534;DHT22;39421;53.204;6.568;2022-08-19T08:11:46;24.30;99.90
53534;DHT22;39421;53.204;6.568;2022-08-19T08:14:16;24.50;99.90
53534;DHT22;39421;53.204;6.568;2022-08-19T08:16:42;24.50;99.90
53534;DHT22;39421;53.204;6.568;2022-08-19T08:19:11;24.50;99.90
53534;DHT22;39421;53.204;6.568;2022-08-19T08:21:41;24.60;99.90
53534;DHT22;39421;53.204;6.568;2022-08-19T08:24:07;24.70;99.90
53534;DHT22;39421;53.204;6.568;2022-08-19T08:26:32;24.80;99.90
53534;DHT22;39421;53.204;6.568;2022-08-19T08:28:58;24.80;99.90
53534;DHT22;39421;53.204;6.568;2022-08-19T08:31:24;24.90;99.90
53534;DHT22;39421;53.204;6.568;2022-08-19T08:33:50;25.10;99.90
53534;DHT22;39421;53.204;6.568;2022-08-19T08:38:54;25.40;99.90
53534;DHT22;39421;53.204;6.568;2022-08-19T08:45:22;25.40;99.90
53534;DHT22;39421;53.204;6.568;2022-08-19T08:47:19;25.70;99.90
53534;DHT22;39421;53.204;6.568;2022-08-19T08:49:52;26.00;99.90
53534;DHT22;39421;53.204;6.568;2022-08-19T08:52:22;26.30;99.90
53534;DHT22;39421;53.204;6.568;2022-08-19T08:54:53;26.60;99.90
53534;DHT22;39421;53.204;6.568;2022-08-19T09:00:14;26.80;99.90
53534;DHT22;39421;53.204;6.568;2022-08-19T09:02:42;26.70;99.90
53534;DHT22;39421;53.204;6.568;2022-08-19T09:05:09;26.80;99.90
53534;DHT22;39421;53.204;6.568;2022-08-19T09:10:46;27.10;99.90
53534;DHT22;39421;53.204;6.568;2022-08-19T09:13:49;27.30;99.90
53534;DHT22;39421;53.204;6.568;2022-08-19T09:16:21;27.30;99.90
53534;DHT22;39421;53.204;6.568;2022-08-19T09:18:56;27.20;99.90
53534;DHT22;39421;53.204;6.568;2022-08-19T09:21:24;27.20;99.90
53534;DHT22;39421;53.204;6.568;2022-08-19T09:23:51;27.10;99.90
53534;DHT22;39421;53.204;6.568;2022-08-19T09:26:19;26.90;99.90
53534;DHT22;39421;53.204;6.568;2022-08-19T09:28:48;26.90;99.90
53534;DHT22;39421;53.204;6.568;2022-08-19T09:31:16;26.90;99.90
53534;DHT22;39421;53.204;6.568;2022-08-19T09:33:42;26.70;99.90
53534;DHT22;39421;53.204;6.568;2022-08-19T09:36:11;26.60;99.90
53534;DHT22;39421;53.204;6.568;2022-08-19T09:38:38;26.60;99.90
53534;DHT22;39421;53.204;6.568;2022-08-19T09:41:15;26.70;99.90
53534;DHT22;39421;53.204;6.568;2022-08-19T09:43:44;26.60;99.90
53534;DHT22;39421;53.204;6.568;2022-08-19T09:46:10;26.50;99.90
53534;DHT22;39421;53.204;6.568;2022-08-19T09:48:38;26.60;99.90
53534;DHT22;39421;53.204;6.568;2022-08-19T09:51:09;26.50;99.90
53534;DHT22;39421;53.204;6.568;2022-08-19T09:53:36;26.60;99.90
53534;DHT22;39421;53.204;6.568;2022-08-19T09:56:03;26.50;99.90
53534;DHT22;39421;53.204;6.568;2022-08-19T09:58:29;26.60;99.90
53534;DHT22;39421;53.204;6.568;2022-08-19T10:00:57;26.60;99.90
53534;DHT22;39421;53.204;6.568;2022-08-19T10:03:24;26.50;99.90
53534;DHT22;39421;53.204;6.568;2022-08-19T10:05:49;26.40;99.90
53534;DHT22;39421;53.204;6.568;2022-08-19T10:08:54;26.20;99.90
53534;DHT22;39421;53.204;6.568;2022-08-19T10:11:13;26.20;99.90
53534;DHT22;39421;53.204;6.568;2022-08-19T10:13:42;26.40;99.90
53534;DHT22;39421;53.204;6.568;2022-08-19T10:16:11;26.30;99.90
53534;DHT22;39421;53.204;6.568;2022-08-19T10:18:37;26.60;99.90
53534;DHT22;39421;53.204;6.568;2022-08-19T10:21:18;27.10;99.90
53534;DHT22;39421;53.204;6.568;2022-08-19T10:23:46;27.20;99.90
53534;DHT22;39421;53.204;6.568;2022-08-19T10:26:19;27.00;99.90
53534;DHT22;39421;53.204;6.568;2022-08-19T10:28:45;27.00;99.90
53534;DHT22;39421;53.204;6.568;2022-08-19T10:31:17;27.10;99.90
53534;DHT22;39421;53.204;6.568;2022-08-19T10:33:45;27.20;99.90
53534;DHT22;39421;53.204;6.568;2022-08-19T10:36:18;27.20;99.90
53534;DHT22;39421;53.204;6.568;2022-08-19T10:38:46;27.20;99.90
53534;DHT22;39421;53.204;6.568;2022-08-19T10:41:23;27.10;99.90
53534;DHT22;39421;53.204;6.568;2022-08-19T10:43:55;27.10;99.90
53534;DHT22;39421;53.204;6.568;2022-08-19T10:46:24;27.10;99.90
53534;DHT22;39421;53.204;6.568;2022-08-19T10:48:50;27.40;99.90
53534;DHT22;39421;53.204;6.568;2022-08-19T10:51:17;27.70;99.90
53534;DHT22;39421;53.204;6.568;2022-08-19T10:54:02;28.00;99.90
53534;DHT22;39421;53.204;6.568;2022-08-19T10:56:29;28.10;99.90
53534;DHT22;39421;53.204;6.568;2022-08-19T10:59:14;28.20;99.90
53534;DHT22;39421;53.204;6.568;2022-08-19T11:01:42;28.40;99.90
53534;DHT22;39421;53.204;6.568;2022-08-19T11:04:09;28.40;99.90
53534;DHT22;39421;53.204;6.568;2022-08-19T11:06:37;28.50;99.90
53534;DHT22;39421;53.204;6.568;2022-08-19T11:09:04;28.80;99.90
53534;DHT22;39421;53.204;6.568;2022-08-19T11:11:31;29.20;99.90
53534;DHT22;39421;53.204;6.568;2022-08-19T11:13:57;29.40;99.90
53534;DHT22;39421;53.204;6.568;2022-08-19T11:16:25;29.30;99.40
53534;DHT22;39421;53.204;6.568;2022-08-19T11:18:54;29.00;99.80
53534;DHT22;39421;53.204;6.568;2022-08-19T11:21:23;29.00;99.90
53534;DHT22;39421;53.204;6.568;2022-08-19T11:23:52;28.70;99.50
53534;DHT22;39421;53.204;6.568;2022-08-19T11:26:20;28.50;99.30
53534;DHT22;39421;53.204;6.568;2022-08-19T11:28:46;28.30;99.90
53534;DHT22;39421;53.204;6.568;2022-08-19T11:31:18;28.30;99.90
53534;DHT22;39421;53.204;6.568;2022-08-19T11:33:45;28.40;99.90
53534;DHT22;39421;53.204;6.568;2022-08-19T11:36:12;28.60;99.90
53534;DHT22;39421;53.204;6.568;2022-08-19T11:38:38;28.80;99.90
53534;DHT22;39421;53.204;6.568;2022-08-19T11:41:06;28.90;99.80
53534;DHT22;39421;53.204;6.568;2022-08-19T11:43:35;28.70;98.90
53534;DHT22;39421;53.204;6.568;2022-08-19T11:46:10;28.40;99.00
53534;DHT22;39421;53.204;6.568;2022-08-19T11:48:36;28.30;99.70
53534;DHT22;39421;53.204;6.568;2022-08-19T11:51:07;28.10;99.50
53534;DHT22;39421;53.204;6.568;2022-08-19T11:53:35;28.00;99.90
53534;DHT22;39421;53.204;6.568;2022-08-19T11:56:01;27.70;99.90
53534;DHT22;39421;53.204;6.568;2022-08-19T11:58:28;27.50;99.90
53534;DHT22;39421;53.204;6.568;2022-08-19T12:00:54;27.40;99.90
53534;DHT22;39421;53.204;6.568;2022-08-19T12:03:20;27.40;99.90
53534;DHT22;39421;53.204;6.568;2022-08-19T12:05:46;27.50;99.90
53534;DHT22;39421;53.204;6.568;2022-08-19T12:08:12;27.50;99.90
53534;DHT22;39421;53.204;6.568;2022-08-19T12:10:39;27.50;99.90
53534;DHT22;39421;53.204;6.568;2022-08-19T12:13:06;27.40;99.90
53534;DHT22;39421;53.204;6.568;2022-08-19T12:15:40;27.30;99.90
53534;DHT22;39421;53.204;6.568;2022-08-19T12:18:07;27.10;99.90
53534;DHT22;39421;53.204;6.568;2022-08-19T12:20:38;27.10;99.90
53534;DHT22;39421;53.204;6.568;2022-08-19T12:23:06;27.20;99.90
53534;DHT22;39421;53.204;6.568;2022-08-19T12:25:33;27.30;99.90
53534;DHT22;39421;53.204;6.568;2022-08-19T12:28:00;27.30;99.90
53534;DHT22;39421;53.204;6.568;2022-08-19T12:30:26;27.40;99.90
53534;DHT22;39421;53.204;6.568;2022-08-19T12:32:52;27.40;99.90
53534;DHT22;39421;53.204;6.568;2022-08-19T12:35:18;27.40;99.90
53534;DHT22;39421;53.204;6.568;2022-08-19T12:37:47;27.50;99.90
53534;DHT22;39421;53.204;6.568;2022-08-19T12:40:14;27.50;99.90
53534;DHT22;39421;53.204;6.568;2022-08-19T12:42:40;27.70;99.90
53534;DHT22;39421;53.204;6.568;2022-08-19T12:45:12;27.70;99.90
53534;DHT22;39421;53.204;6.568;2022-08-19T12:47:39;27.50;99.90
53534;DHT22;39421;53.204;6.568;2022-08-19T12:50:05;27.30;99.90
53534;DHT22;39421;53.204;6.568;2022-08-19T12:52:37;27.00;99.90
53534;DHT22;39421;53.204;6.568;2022-08-19T12:55:05;26.80;99.90
53534;DHT22;39421;53.204;6.568;2022-08-19T12:57:31;26.80;99.90
53534;DHT22;39421;53.204;6.568;2022-08-19T13:00:18;26.90;99.90
53534;DHT22;39421;53.204;6.568;2022-08-19T13:02:47;27.00;99.90
53534;DHT22;39421;53.204;6.568;2022-08-19T13:05:17;27.30;99.90
53534;DHT22;39421;53.204;6.568;2022-08-19T13:07:45;27.40;99.90
53534;DHT22;39421;53.204;6.568;2022-08-19T13:10:16;27.50;99.90
53534;DHT22;39421;53.204;6.568;2022-08-19T13:12:45;27.60;99.90
53534;DHT22;39421;53.204;6.568;2022-08-19T13:15:11;27.60;99.90
53534;DHT22;39421;53.204;6.568;2022-08-19T13:17:39;27.50;99.90
53534;DHT22;39421;53.204;6.568;2022-08-19T13:20:06;27.50;99.90
53534;DHT22;39421;53.204;6.568;2022-08-19T13:22:33;27.60;99.90
53534;DHT22;39421;53.204;6.568;2022-08-19T13:25:01;27.80;99.90
53534;DHT22;39421;53.204;6.568;2022-08-19T13:27:27;27.90;99.90
53534;DHT22;39421;53.204;6.568;2022-08-19T13:29:52;28.10;99.90
53534;DHT22;39421;53.204;6.568;2022-08-19T13:32:37;28.20;99.90
53534;DHT22;39421;53.204;6.568;2022-08-19T13:35:21;28.10;99.90
53534;DHT22;39421;53.204;6.568;2022-08-19T13:37:47;27.90;99.90
53534;DHT22;39421;53.204;6.568;2022-08-19T13:40:19;27.80;99.90
53534;DHT22;39421;53.204;6.568;2022-08-19T13:42:50;27.70;99.90
53534;DHT22;39421;53.204;6.568;2022-08-19T13:45:20;27.80;99.90
53534;DHT22;39421;53.204;6.568;2022-08-19T13:47:48;27.80;99.90
53534;DHT22;39421;53.204;6.568;2022-08-19T13:50:16;27.80;99.90
53534;DHT22;39421;53.204;6.568;2022-08-19T13:52:42;27.80;99.90
53534;DHT22;39421;53.204;6.568;2022-08-19T13:55:10;27.70;99.90
53534;DHT22;39421;53.204;6.568;2022-08-19T13:57:37;27.60;99.90
53534;DHT22;39421;53.204;6.568;2022-08-19T14:00:07;27.60;99.90
53534;DHT22;39421;53.204;6.568;2022-08-19T14:02:35;27.50;99.90
53534;DHT22;39421;53.204;6.568;2022-08-19T14:05:04;27.50;99.90
53534;DHT22;39421;53.204;6.568;2022-08-19T14:07:30;27.40;99.90
53534;DHT22;39421;53.204;6.568;2022-08-19T14:09:55;27.30;99.90
53534;DHT22;39421;53.204;6.568;2022-08-19T14:12:21;27.30;99.90
53534;DHT22;39421;53.204;6.568;2022-08-19T14:14:47;27.20;99.90
53534;DHT22;39421;53.204;6.568;2022-08-19T14:17:13;27.20;99.90
53534;DHT22;39421;53.204;6.568;2022-08-19T14:19:38;27.20;99.90
53534;DHT22;39421;53.204;6.568;2022-08-19T14:22:04;27.20;99.90
53534;DHT22;39421;53.204;6.568;2022-08-19T14:24:31;27.20;99.90
53534;DHT22;39421;53.204;6.568;2022-08-19T14:26:58;27.10;99.90
53534;DHT22;39421;53.204;6.568;2022-08-19T14:29:25;27.20;99.90
53534;DHT22;39421;53.204;6.568;2022-08-19T14:31:51;27.20;99.90
53534;DHT22;39421;53.204;6.568;2022-08-19T14:34:16;27.20;99.90
53534;DHT22;39421;53.204;6.568;2022-08-19T14:36:42;27.10;99.90
53534;DHT22;39421;53.204;6.568;2022-08-19T14:39:08;27.10;99.90
53534;DHT22;39421;53.204;6.568;2022-08-19T14:41:35;27.10;99.90
53534;DHT22;39421;53.204;6.568;2022-08-19T14:44:00;27.20;99.90
53534;DHT22;39421;53.204;6.568;2022-08-19T14:46:28;27.30;99.90
53534;DHT22;39421;53.204;6.568;2022-08-19T14:48:55;27.30;99.90
53534;DHT22;39421;53.204;6.568;2022-08-19T14:51:22;27.30;99.90
53534;DHT22;39421;53.204;6.568;2022-08-19T14:53:49;27.40;99.90
53534;DHT22;39421;53.204;6.568;2022-08-19T14:56:18;27.40;99.90
53534;DHT22;39421;53.204;6.568;2022-08-19T14:58:44;27.50;99.90
53534;DHT22;39421;53.204;6.568;2022-08-19T15:01:12;27.40;99.90
53534;DHT22;39421;53.204;6.568;2022-08-19T15:03:37;27.40;99.90
53534;DHT22;39421;53.204;6.568;2022-08-19T15:06:06;27.50;99.90
53534;DHT22;39421;53.204;6.568;2022-08-19T15:08:34;27.50;99.90
53534;DHT22;39421;53.204;6.568;2022-08-19T15:11:11;27.60;99.90
53534;DHT22;39421;53.204;6.568;2022-08-19T15:13:39;27.60;99.90
53534;DHT22;39421;53.204;6.568;2022-08-19T15:16:06;27.60;99.90
53534;DHT22;39421;53.204;6.568;2022-08-19T15:18:32;27.60;99.90
53534;DHT22;39421;53.204;6.568;2022-08-19T15:20:58;27.60;99.90
53534;DHT22;39421;53.204;6.568;2022-08-19T15:23:25;27.60;99.90
53534;DHT22;39421;53.204;6.568;2022-08-19T15:25:50;27.60;99.90
53534;DHT22;39421;53.204;6.568;2022-08-19T15:28:25;27.60;99.90
53534;DHT22;39421;53.204;6.568;2022-08-19T15:30:51;27.60;99.90
53534;DHT22;39421;53.204;6.568;2022-08-19T15:33:18;27.60;99.90
53534;DHT22;39421;53.204;6.568;2022-08-19T15:35:46;27.60;99.90
53534;DHT22;39421;53.204;6.568;2022-08-19T15:38:12;27.70;99.90
53534;DHT22;39421;53.204;6.568;2022-08-19T15:40:40;27.70;99.90
53534;DHT22;39421;53.204;6.568;2022-08-19T15:43:06;27.70;99.90
53534;DHT22;39421;53.204;6.568;2022-08-19T15:45:32;27.70;99.90
53534;DHT22;39421;53.204;6.568;2022-08-19T15:48:02;27.70;99.90
53534;DHT22;39421;53.204;6.568;2022-08-19T15:50:29;27.70;99.90
53534;DHT22;39421;53.204;6.568;2022-08-19T15:53:06;27.60;99.90
53534;DHT22;39421;53.204;6.568;2022-08-19T15:55:34;27.60;99.90